Time;durP1;ratioP1;P1;durP2;ratioP2;P2;SDS_P1;SDS_P2;PMS_P1;PMS_P2;Temp;Humidity;BMP_temperature;BMP_pressure;BME280_temperature;BME280_humidity;BME280_pressure;Samples;Min_cycle;Max_cycle;Signal;HPM_P1;HPM_P2
2023/07/09 00:01:17;;;;;;;8.90;6.65;;;;;;;21.29;99.10;101741.09;4958604;28;20465;-74
2023/07/09 00:04:02;;;;;;;9.25;6.38;;;;;;;21.25;98.96;101747.69;4960152;28;20519;-74
2023/07/09 00:06:49;;;;;;;9.65;6.65;;;;;;;21.20;98.74;101749.88;4969881;28;20043;-74
2023/07/09 00:09:37;;;;;;;9.60;6.90;;;;;;;21.19;99.30;101747.31;4960083;28;20050;-74
2023/07/09 00:12:23;;;;;;;9.57;6.63;;;;;;;21.15;99.81;101744.00;4969852;28;20057;-74
2023/07/09 00:15:12;;;;;;;10.35;6.57;;;;;;;21.14;99.98;101742.28;4968397;28;20053;-74
2023/07/09 00:18:00;;;;;;;9.07;6.28;;;;;;;21.09;100.00;101747.16;4969520;28;20082;-74
2023/07/09 00:20:48;;;;;;;10.02;6.68;;;;;;;21.04;100.00;101744.81;4970803;28;20125;-74
2023/07/09 00:23:34;;;;;;;11.30;6.93;;;;;;;21.00;100.00;101746.00;4970232;28;20162;-74
2023/07/09 00:26:26;;;;;;;11.40;7.35;;;;;;;20.95;100.00;101740.97;4967958;28;20047;-74
2023/07/09 00:29:12;;;;;;;14.50;8.30;;;;;;;20.89;100.00;101741.44;4974994;28;20054;-74
2023/07/09 00:31:58;;;;;;;14.55;7.55;;;;;;;20.86;100.00;101747.91;4978026;28;20040;-74
2023/07/09 00:34:48;;;;;;;11.07;7.32;;;;;;;20.82;100.00;101749.09;4978262;28;20058;-74
2023/07/09 00:37:33;;;;;;;10.95;7.55;;;;;;;20.80;100.00;101747.50;4978002;28;20230;-74
2023/07/09 00:40:22;;;;;;;12.65;7.68;;;;;;;20.76;100.00;101730.72;4977519;28;20035;-74
2023/07/09 00:43:14;;;;;;;11.43;8.10;;;;;;;20.71;100.00;101731.03;4979108;28;20046;-74
2023/07/09 00:46:27;;;;;;;11.38;7.63;;;;;;;20.67;100.00;101721.50;4962116;28;20446;-74
2023/07/09 00:49:18;;;;;;;9.43;6.90;;;;;;;20.64;100.00;101727.09;4976747;28;20037;-74
2023/07/09 00:52:22;;;;;;;11.50;7.07;;;;;;;20.64;100.00;101721.72;4962670;28;20034;-73
2023/07/09 00:55:11;;;;;;;10.98;7.43;;;;;;;20.63;100.00;101725.38;4955852;28;20688;-74
2023/07/09 00:58:01;;;;;;;10.88;7.10;;;;;;;20.63;100.00;101720.00;4977558;28;20038;-74
2023/07/09 01:00:52;;;;;;;10.43;7.55;;;;;;;20.62;100.00;101715.59;4955122;28;20030;-74
2023/07/09 01:03:51;;;;;;;10.13;6.60;;;;;;;20.61;100.00;101728.19;4960456;28;20113;-74
2023/07/09 01:06:46;;;;;;;11.15;7.68;;;;;;;20.60;100.00;101728.31;4961550;28;20048;-74
2023/07/09 01:09:35;;;;;;;11.93;8.07;;;;;;;20.58;100.00;101730.25;4956142;28;20030;-74
2023/07/09 01:12:22;;;;;;;13.70;7.40;;;;;;;20.56;100.00;101734.88;4977318;28;20046;-74
2023/07/09 01:15:08;;;;;;;11.15;7.88;;;;;;;20.53;100.00;101729.75;4977314;28;20038;-74
2023/07/09 01:17:54;;;;;;;10.35;7.30;;;;;;;20.47;100.00;101729.22;4978176;28;20053;-74
2023/07/09 01:20:48;;;;;;;9.70;6.90;;;;;;;20.46;100.00;101726.63;4957957;28;20049;-74
2023/07/09 01:23:36;;;;;;;12.73;7.45;;;;;;;20.42;100.00;101728.69;4960439;28;20053;-74
2023/07/09 01:26:25;;;;;;;9.93;7.50;;;;;;;20.42;100.00;101736.78;4977120;28;20038;-74
2023/07/09 01:29:12;;;;;;;12.40;7.50;;;;;;;20.40;100.00;101736.03;4977349;28;20584;-74
2023/07/09 01:31:57;;;;;;;10.07;7.50;;;;;;;20.38;100.00;101731.72;4977182;28;20126;-74
2023/07/09 01:34:44;;;;;;;12.88;8.57;;;;;;;20.35;100.00;101727.44;4977597;28;20042;-73
2023/07/09 01:37:29;;;;;;;14.93;8.20;;;;;;;20.32;100.00;101722.31;4948161;28;20701;-73
2023/07/09 01:40:18;;;;;;;12.68;8.50;;;;;;;20.29;100.00;101734.13;4976030;28;20077;-73
2023/07/09 01:43:07;;;;;;;11.15;7.85;;;;;;;20.25;100.00;101724.56;4976152;28;20042;-73
2023/07/09 01:45:57;;;;;;;12.27;8.13;;;;;;;20.24;100.00;101730.91;4976800;28;20066;-73
2023/07/09 01:48:44;;;;;;;13.27;8.23;;;;;;;20.19;100.00;101725.00;4960270;28;20613;-73
2023/07/09 01:51:30;;;;;;;12.43;7.70;;;;;;;20.15;100.00;101729.75;4976647;28;20472;-73
2023/07/09 01:54:16;;;;;;;13.68;8.52;;;;;;;20.12;100.00;101726.41;4962099;28;20050;-74
2023/07/09 01:57:24;;;;;;;11.43;7.70;;;;;;;20.06;100.00;101725.06;4977145;28;20385;-73
2023/07/09 02:00:13;;;;;;;9.75;7.32;;;;;;;20.04;100.00;101727.84;4976497;28;20034;-73
2023/07/09 02:03:00;;;;;;;11.27;7.55;;;;;;;20.02;100.00;101720.84;4975916;28;20046;-73
2023/07/09 02:05:46;;;;;;;11.30;8.07;;;;;;;19.98;100.00;101724.75;4976297;28;20030;-73
2023/07/09 02:08:34;;;;;;;11.40;8.27;;;;;;;19.94;100.00;101730.28;4977031;28;20045;-73
2023/07/09 02:11:20;;;;;;;11.85;8.25;;;;;;;19.92;100.00;101737.63;4976716;28;20109;-73
2023/07/09 02:14:05;;;;;;;13.30;7.93;;;;;;;19.91;100.00;101740.41;4962206;28;20845;-73
2023/07/09 02:16:52;;;;;;;11.85;8.40;;;;;;;19.88;100.00;101738.78;4977363;28;20383;-74
2023/07/09 02:19:37;;;;;;;12.30;8.02;;;;;;;19.87;100.00;101742.44;4976281;28;20144;-74
2023/07/09 02:22:23;;;;;;;14.10;8.93;;;;;;;19.86;100.00;101740.72;4959101;28;20830;-73
2023/07/09 02:25:09;;;;;;;13.35;8.50;;;;;;;19.84;100.00;101741.81;4977426;28;20038;-74
2023/07/09 02:27:55;;;;;;;11.77;8.15;;;;;;;19.81;100.00;101740.19;4966291;28;20500;-74
2023/07/09 02:30:41;;;;;;;13.10;8.13;;;;;;;19.79;100.00;101734.06;4988231;28;20061;-74
2023/07/09 02:33:26;;;;;;;12.05;8.48;;;;;;;19.77;100.00;101734.19;4971516;28;21546;-74
2023/07/09 02:36:12;;;;;;;11.57;8.27;;;;;;;19.74;100.00;101736.22;4987479;28;20492;-74
2023/07/09 02:38:58;;;;;;;13.13;8.27;;;;;;;19.71;100.00;101739.97;4987130;28;20038;-74
2023/07/09 02:41:44;;;;;;;12.50;8.57;;;;;;;19.70;100.00;101742.75;4987163;28;20041;-74
2023/07/09 02:44:29;;;;;;;11.88;8.57;;;;;;;19.68;100.00;101740.22;4986323;28;20040;-74
2023/07/09 02:47:15;;;;;;;14.98;9.00;;;;;;;19.64;100.00;101739.56;4987823;28;20108;-73
2023/07/09 02:50:03;;;;;;;15.98;8.85;;;;;;;19.61;100.00;101731.72;4987125;28;21700;-74
2023/07/09 02:52:52;;;;;;;12.00;8.45;;;;;;;19.59;100.00;101738.16;4986300;28;20543;-74
2023/07/09 02:55:37;;;;;;;13.55;9.07;;;;;;;19.58;100.00;101739.13;4985549;28;20045;-73
2023/07/09 02:58:23;;;;;;;14.88;8.25;;;;;;;19.56;100.00;101728.50;4985990;28;20117;-74
2023/07/09 03:01:09;;;;;;;12.52;8.65;;;;;;;19.56;100.00;101725.81;4986785;28;20520;-74
2023/07/09 03:03:55;;;;;;;14.75;8.75;;;;;;;19.54;100.00;101719.69;4986820;28;20038;-74
2023/07/09 03:06:41;;;;;;;14.15;8.65;;;;;;;19.52;100.00;101718.94;4986389;28;20541;-74
2023/07/09 03:09:28;;;;;;;12.70;9.00;;;;;;;19.50;100.00;101724.41;4987009;28;20394;-74
2023/07/09 03:12:14;;;;;;;14.05;9.18;;;;;;;19.50;100.00;101720.88;4985476;28;20044;-74
2023/07/09 03:14:59;;;;;;;13.90;8.40;;;;;;;19.49;100.00;101725.38;4971939;28;20110;-74
2023/07/09 03:17:45;;;;;;;13.73;8.82;;;;;;;19.48;100.00;101718.28;4987286;28;20492;-74
2023/07/09 03:20:32;;;;;;;14.27;9.60;;;;;;;19.48;100.00;101722.78;4985437;28;21591;-73
2023/07/09 03:23:17;;;;;;;12.93;9.18;;;;;;;19.47;100.00;101727.31;4980007;28;20046;-73
2023/07/09 03:26:04;;;;;;;13.23;9.00;;;;;;;19.47;100.00;101727.31;4987207;28;20460;-74
2023/07/09 03:28:49;;;;;;;15.25;9.50;;;;;;;19.46;100.00;101728.28;4984871;28;20046;-73
2023/07/09 03:31:35;;;;;;;13.65;8.95;;;;;;;19.46;100.00;101724.72;4983418;28;20134;-73
2023/07/09 03:34:21;;;;;;;15.48;9.38;;;;;;;19.44;100.00;101732.03;4979358;28;20038;-73
2023/07/09 03:37:07;;;;;;;13.43;9.65;;;;;;;19.42;100.00;101734.81;4976417;28;20032;-74
2023/07/09 03:39:52;;;;;;;13.60;9.40;;;;;;;19.39;100.00;101733.22;4977191;28;20325;-73
2023/07/09 03:42:39;;;;;;;15.02;9.20;;;;;;;19.38;100.00;101736.88;4986306;28;21489;-74
2023/07/09 03:45:24;;;;;;;13.27;9.43;;;;;;;19.38;100.00;101739.56;4960201;28;20565;-73
2023/07/09 03:48:10;;;;;;;14.30;8.98;;;;;;;19.36;100.00;101738.81;4984567;28;20033;-73
2023/07/09 03:50:56;;;;;;;13.95;9.10;;;;;;;19.35;100.00;101749.63;4974987;28;20080;-74
2023/07/09 03:53:42;;;;;;;14.15;9.35;;;;;;;19.36;100.00;101746.84;4984744;28;21564;-73
2023/07/09 03:56:31;;;;;;;13.20;9.35;;;;;;;19.37;100.00;101747.69;4983770;28;20113;-73
2023/07/09 03:59:16;;;;;;;14.50;9.65;;;;;;;19.39;100.00;101740.44;4984179;28;20403;-73
2023/07/09 04:02:03;;;;;;;14.93;9.85;;;;;;;19.39;100.00;101735.91;4984370;28;20064;-73
2023/07/09 04:04:48;;;;;;;14.43;9.07;;;;;;;19.41;100.00;101733.94;4986291;28;20046;-73
2023/07/09 04:07:37;;;;;;;13.32;9.30;;;;;;;19.43;100.00;101739.22;4989748;28;20041;-73
2023/07/09 04:10:23;;;;;;;15.63;9.95;;;;;;;19.45;100.00;101734.59;4988724;28;20031;-73
2023/07/09 04:13:09;;;;;;;14.50;9.27;;;;;;;19.48;100.00;101738.91;4988282;28;20693;-73
2023/07/09 04:15:56;;;;;;;14.07;9.27;;;;;;;19.49;100.00;101751.34;4987304;28;20072;-73
2023/07/09 04:18:41;;;;;;;14.05;9.57;;;;;;;19.51;100.00;101738.72;4977607;28;20101;-73
2023/07/09 04:21:27;;;;;;;14.13;9.95;;;;;;;19.50;100.00;101740.53;4986963;28;20062;-73
2023/07/09 04:24:18;;;;;;;13.52;9.80;;;;;;;19.52;100.00;101738.56;4988855;28;20061;-73
2023/07/09 04:27:04;;;;;;;12.80;8.93;;;;;;;19.53;100.00;101747.50;4973942;28;20041;-73
2023/07/09 04:29:50;;;;;;;12.88;9.52;;;;;;;19.54;100.00;101739.34;4977703;28;20049;-73
2023/07/09 04:32:36;;;;;;;12.68;9.02;;;;;;;19.57;100.00;101740.09;4987507;28;20054;-73
2023/07/09 04:35:22;;;;;;;13.77;9.57;;;;;;;19.61;100.00;101739.75;4987300;28;20049;-73
2023/07/09 04:38:08;;;;;;;15.60;9.90;;;;;;;19.63;100.00;101739.66;4987777;28;20038;-73
2023/07/09 04:40:54;;;;;;;13.30;9.43;;;;;;;19.65;100.00;101735.03;4987127;28;20493;-73
2023/07/09 04:43:39;;;;;;;12.02;9.05;;;;;;;19.70;100.00;101743.63;4987623;28;20133;-73
2023/07/09 04:46:25;;;;;;;13.25;9.07;;;;;;;19.76;100.00;101742.34;4987343;28;20473;-73
2023/07/09 04:49:12;;;;;;;15.27;9.70;;;;;;;19.79;100.00;101751.03;4987358;28;20096;-73
2023/07/09 04:51:59;;;;;;;12.98;9.30;;;;;;;19.86;100.00;101748.78;4987804;28;20034;-73
2023/07/09 04:54:50;;;;;;;14.35;9.98;;;;;;;19.92;100.00;101745.69;4986996;28;20572;-73
2023/07/09 04:57:36;;;;;;;11.50;8.93;;;;;;;19.97;100.00;101742.69;4988065;28;20035;-73
2023/07/09 05:00:22;;;;;;;13.13;9.63;;;;;;;20.03;100.00;101739.56;4987862;28;20041;-73
2023/07/09 05:03:08;;;;;;;15.45;9.05;;;;;;;20.10;100.00;101741.81;4986685;28;20207;-73
2023/07/09 05:05:54;;;;;;;12.98;9.40;;;;;;;20.17;100.00;101743.09;4985408;28;20034;-73
2023/07/09 05:08:41;;;;;;;13.35;8.80;;;;;;;20.24;100.00;101747.03;4986819;28;20093;-74
2023/07/09 05:11:27;;;;;;;13.75;9.13;;;;;;;20.31;100.00;101748.31;4987364;28;20396;-73
2023/07/09 05:14:13;;;;;;;13.40;9.02;;;;;;;20.37;100.00;101752.38;4986676;28;20520;-73
2023/07/09 05:16:58;;;;;;;12.80;9.02;;;;;;;20.45;100.00;101744.63;4988384;28;20042;-73
2023/07/09 05:19:45;;;;;;;13.32;8.63;;;;;;;20.51;100.00;101740.63;4987842;28;20042;-73
2023/07/09 05:22:31;;;;;;;15.40;9.02;;;;;;;20.56;100.00;101754.59;4977172;28;20049;-73
2023/07/09 05:25:17;;;;;;;14.13;8.98;;;;;;;20.60;100.00;101753.38;4987750;28;20228;-73
2023/07/09 05:28:04;;;;;;;11.20;8.32;;;;;;;20.65;100.00;101765.63;4986593;28;20065;-73
2023/07/09 05:30:50;;;;;;;17.27;9.25;;;;;;;20.69;100.00;101756.38;4975356;28;20418;-73
2023/07/09 05:33:35;;;;;;;13.00;9.35;;;;;;;20.71;100.00;101760.63;4987788;28;20033;-73
2023/07/09 05:36:21;;;;;;;14.00;9.02;;;;;;;20.76;100.00;101757.63;4986537;28;20557;-73
2023/07/09 05:39:07;;;;;;;15.25;9.00;;;;;;;20.80;100.00;101760.94;4987377;28;20135;-73
2023/07/09 05:41:53;;;;;;;12.00;8.75;;;;;;;20.85;100.00;101759.66;4987063;28;20048;-73
2023/07/09 05:44:39;;;;;;;12.65;9.05;;;;;;;20.89;100.00;101757.59;4986572;28;20528;-73
2023/07/09 05:47:25;;;;;;;12.30;8.93;;;;;;;20.96;100.00;101768.78;4987497;28;20038;-73
2023/07/09 05:50:11;;;;;;;10.98;8.23;;;;;;;21.06;100.00;101774.28;4988023;28;20045;-73
2023/07/09 05:52:57;;;;;;;13.63;8.55;;;;;;;21.15;100.00;101766.38;4986371;28;20048;-73
2023/07/09 05:55:43;;;;;;;12.98;8.55;;;;;;;21.27;100.00;101772.66;4985181;28;20046;-73
2023/07/09 05:58:29;;;;;;;11.38;8.10;;;;;;;21.42;100.00;101772.47;4985815;28;20042;-73
2023/07/09 06:01:15;;;;;;;13.02;8.88;;;;;;;21.54;100.00;101768.81;4986378;28;20516;-73
2023/07/09 06:04:00;;;;;;;11.65;8.48;;;;;;;21.67;100.00;101774.09;4987655;28;20035;-73
2023/07/09 06:06:46;;;;;;;11.98;8.18;;;;;;;21.83;100.00;101784.56;4985573;28;20053;-73
2023/07/09 06:09:32;;;;;;;14.13;9.15;;;;;;;21.98;100.00;101777.09;4986039;28;20772;-73
2023/07/09 06:12:19;;;;;;;12.70;8.38;;;;;;;22.11;100.00;101776.09;4987016;28;20092;-73
2023/07/09 06:15:05;;;;;;;11.30;8.48;;;;;;;22.23;100.00;101785.06;4985734;28;20054;-73
2023/07/09 06:17:52;;;;;;;11.57;8.60;;;;;;;22.36;100.00;101780.41;4986076;28;20042;-73
2023/07/09 06:20:38;;;;;;;13.63;8.40;;;;;;;22.48;100.00;101785.75;4986972;28;20092;-74
2023/07/09 06:23:24;;;;;;;12.68;9.20;;;;;;;22.63;100.00;101787.25;4984942;28;20086;-73
2023/07/09 06:26:10;;;;;;;16.33;9.05;;;;;;;22.81;100.00;101786.69;4984161;28;20096;-74
2023/07/09 06:28:56;;;;;;;12.77;9.38;;;;;;;22.94;100.00;101794.63;4986291;28;20053;-73
2023/07/09 06:31:42;;;;;;;15.90;9.70;;;;;;;23.13;99.99;101793.06;4957385;28;20125;-73
2023/07/09 06:34:28;;;;;;;14.32;9.02;;;;;;;23.29;99.58;101789.91;4986642;28;20520;-73
2023/07/09 06:37:14;;;;;;;12.52;8.57;;;;;;;23.55;99.55;101794.97;4986351;28;20446;-73
2023/07/09 06:40:00;;;;;;;15.32;9.05;;;;;;;23.78;98.97;101797.50;4977779;28;20805;-73
2023/07/09 06:42:46;;;;;;;13.75;8.80;;;;;;;24.00;98.68;101808.19;4970617;28;20046;-73
2023/07/09 06:45:52;;;;;;;11.48;7.93;;;;;;;24.23;98.68;101802.59;4985922;28;20069;-73
2023/07/09 06:48:45;;;;;;;12.55;8.90;;;;;;;24.43;97.97;101810.78;4976029;28;20042;-73
2023/07/09 06:51:31;;;;;;;16.15;10.05;;;;;;;24.50;97.60;101821.88;4961133;28;20383;-73
2023/07/09 06:54:17;;;;;;;13.10;9.25;;;;;;;24.58;97.35;101807.69;4973830;28;20504;-74
2023/07/09 06:57:03;;;;;;;15.00;10.05;;;;;;;24.65;97.66;101814.25;4984616;28;20568;-73
2023/07/09 06:59:49;;;;;;;13.13;9.32;;;;;;;24.71;97.54;101818.25;4986263;28;20408;-73
2023/07/09 07:02:35;;;;;;;12.73;9.23;;;;;;;24.72;97.60;101815.38;4983479;28;20050;-73
2023/07/09 07:05:21;;;;;;;13.70;9.45;;;;;;;24.76;98.08;101814.13;4976545;28;20042;-74
2023/07/09 07:08:10;;;;;;;15.23;10.90;;;;;;;24.89;97.81;101818.47;4986128;28;20053;-74
2023/07/09 07:11:02;;;;;;;15.60;10.85;;;;;;;25.03;97.86;101822.59;4972706;28;20039;-74
2023/07/09 07:13:51;;;;;;;16.43;11.40;;;;;;;25.25;98.17;101821.44;4976115;28;20395;-73
2023/07/09 07:16:36;;;;;;;15.27;10.63;;;;;;;25.35;96.88;101825.03;4985715;28;21954;-73
2023/07/09 07:19:22;;;;;;;15.73;11.02;;;;;;;25.48;96.66;101832.84;4975739;28;20120;-74
2023/07/09 07:22:08;;;;;;;16.38;11.00;;;;;;;25.63;96.53;101824.28;4985417;28;20049;-73
2023/07/09 07:24:54;;;;;;;15.48;11.10;;;;;;;25.81;96.25;101832.50;4986425;28;20042;-74
2023/07/09 07:27:40;;;;;;;15.52;11.25;;;;;;;26.01;96.09;101840.59;4985430;28;20085;-74
2023/07/09 07:30:26;;;;;;;16.45;10.65;;;;;;;26.13;95.25;101838.53;4986605;28;20049;-74
2023/07/09 07:33:14;;;;;;;15.90;11.48;;;;;;;26.18;94.98;101847.09;4986479;28;20030;-74
2023/07/09 07:36:06;;;;;;;15.63;11.32;;;;;;;26.24;95.03;101835.69;4976096;28;20042;-73
2023/07/09 07:38:55;;;;;;;16.25;12.07;;;;;;;26.29;94.39;101854.22;4989105;28;20039;-74
2023/07/09 07:41:41;;;;;;;16.58;11.20;;;;;;;26.35;94.42;101845.47;4990646;28;20470;-74
2023/07/09 07:44:27;;;;;;;17.83;12.35;;;;;;;26.42;93.46;101837.63;4990042;28;20046;-74
2023/07/09 07:47:13;;;;;;;15.32;12.18;;;;;;;26.46;92.93;101852.56;4989850;28;21569;-74
2023/07/09 07:49:59;;;;;;;17.25;12.05;;;;;;;26.47;92.59;101853.44;4990122;28;20052;-74
2023/07/09 07:52:45;;;;;;;20.48;11.98;;;;;;;26.49;92.41;101852.28;4990672;28;20050;-75
2023/07/09 07:55:30;;;;;;;16.08;11.55;;;;;;;26.51;92.77;101850.25;4973289;28;20042;-74
2023/07/09 07:58:17;;;;;;;15.07;11.48;;;;;;;26.57;93.07;101846.06;4989972;28;20046;-73
2023/07/09 08:01:03;;;;;;;14.35;10.73;;;;;;;26.69;93.33;101850.31;4986924;28;20041;-74
2023/07/09 08:03:49;;;;;;;20.65;11.43;;;;;;;26.83;93.89;101851.66;4990214;28;20148;-74
2023/07/09 08:06:35;;;;;;;16.35;9.80;;;;;;;26.93;92.62;101845.31;4989872;28;20409;-74
2023/07/09 08:09:24;;;;;;;12.45;9.45;;;;;;;26.92;90.18;101839.03;4990122;28;20185;-74
2023/07/09 08:12:12;;;;;;;12.40;8.27;;;;;;;26.90;88.41;101837.47;4978057;28;20037;-73
2023/07/09 08:14:57;;;;;;;12.68;7.95;;;;;;;26.90;86.24;101835.59;4989963;28;20045;-74
2023/07/09 08:17:43;;;;;;;11.55;7.50;;;;;;;27.00;85.30;101845.56;4990155;28;20167;-74
2023/07/09 08:20:29;;;;;;;9.82;7.68;;;;;;;27.03;83.55;101850.69;4989542;28;20085;-74
2023/07/09 08:23:15;;;;;;;12.88;7.78;;;;;;;27.02;82.63;101840.81;4979159;28;20042;-74
2023/07/09 08:26:02;;;;;;;12.40;6.90;;;;;;;26.92;81.34;101841.75;4989580;28;20099;-74
2023/07/09 08:28:48;;;;;;;10.20;6.82;;;;;;;26.89;80.52;101842.03;4988112;28;20053;-73
2023/07/09 08:31:34;;;;;;;9.55;7.38;;;;;;;26.92;79.45;101843.63;4989145;28;20053;-74
2023/07/09 08:34:20;;;;;;;11.20;7.72;;;;;;;26.96;79.63;101842.31;4989919;28;20034;-74
2023/07/09 08:37:08;;;;;;;11.48;8.10;;;;;;;26.97;78.71;101833.97;4989636;28;20290;-74
2023/07/09 08:39:54;;;;;;;9.50;6.72;;;;;;;27.07;78.09;101841.22;4988625;28;20073;-74
2023/07/09 08:42:46;;;;;;;9.80;5.97;;;;;;;27.10;76.41;101841.75;4971774;28;20049;-74
2023/07/09 08:45:31;;;;;;;10.50;6.70;;;;;;;27.11;76.54;101834.44;4979459;28;20097;-74
2023/07/09 08:48:35;;;;;;;10.38;6.30;;;;;;;27.09;75.53;101850.06;4989784;28;20397;-74
2023/07/09 08:51:29;;;;;;;11.05;8.15;;;;;;;27.20;75.32;101838.09;4975732;28;20144;-74
2023/07/09 08:54:40;;;;;;;;;;;;;;;;;;;;;
2023/07/09 08:57:29;;;;;;;10.32;7.35;;;;;;;27.22;77.01;101830.63;4978457;28;20115;-74
2023/07/09 09:00:18;;;;;;;9.68;7.47;;;;;;;27.19;76.24;101842.66;4986490;28;20089;-74
2023/07/09 09:03:14;;;;;;;10.77;7.95;;;;;;;27.10;72.90;101827.31;4977927;28;20155;-75
2023/07/09 09:06:00;;;;;;;9.68;7.43;;;;;;;27.04;76.06;101825.22;4986132;28;20210;-75
2023/07/09 09:09:04;;;;;;;11.00;6.63;;;;;;;27.12;75.68;101830.72;4987756;28;20093;-75
2023/07/09 09:12:04;;;;;;;10.60;7.63;;;;;;;27.25;74.31;101839.31;4995016;28;20094;-75
2023/07/09 09:15:15;;;;;;;9.52;7.22;;;;;;;27.21;72.58;101832.50;4985429;28;20042;-75
2023/07/09 09:18:19;;;;;;;11.30;7.10;;;;;;;27.25;73.74;101830.34;4977994;28;20120;-74
2023/07/09 09:21:23;;;;;;;7.22;5.15;;;;;;;27.26;68.90;101834.75;4988331;28;20706;-74
2023/07/09 09:24:17;;;;;;;7.68;4.65;;;;;;;27.36;69.74;101845.53;4980521;28;20488;-74
2023/07/09 09:27:04;;;;;;;9.25;5.30;;;;;;;27.46;68.92;101834.59;4978031;28;20121;-74
2023/07/09 09:29:50;;;;;;;7.35;4.72;;;;;;;27.55;67.14;101832.78;4967238;28;20059;-75
2023/07/09 09:32:43;;;;;;;8.35;4.80;;;;;;;27.60;64.18;101835.88;4968862;28;20262;-75
2023/07/09 09:35:37;;;;;;;8.27;5.47;;;;;;;27.76;65.03;101843.31;4939532;28;20063;-76
2023/07/09 09:38:23;;;;;;;7.50;4.97;;;;;;;27.83;65.02;101851.69;4965909;28;20557;-74
2023/07/09 09:41:14;;;;;;;7.15;4.68;;;;;;;27.85;64.52;101855.09;4960088;28;20122;-74
2023/07/09 09:44:00;;;;;;;7.43;4.75;;;;;;;27.88;63.06;101860.25;4968741;28;20100;-73
2023/07/09 09:46:49;;;;;;;9.38;4.93;;;;;;;27.85;61.37;101857.81;4970194;28;20492;-73
2023/07/09 09:49:42;;;;;;;6.82;5.00;;;;;;;27.84;59.95;101861.56;4960430;28;20035;-74
2023/07/09 09:52:32;;;;;;;6.20;4.18;;;;;;;27.92;60.48;101856.16;4968802;28;20057;-74
2023/07/09 09:55:20;;;;;;;6.03;3.80;;;;;;;28.00;59.79;101864.38;4966043;28;20039;-74
2023/07/09 09:58:14;;;;;;;5.70;4.32;;;;;;;28.12;58.44;101867.69;4969370;28;20034;-74
2023/07/09 10:01:00;;;;;;;5.65;3.97;;;;;;;28.11;58.65;101862.41;4967124;28;20077;-74
2023/07/09 10:03:52;;;;;;;6.80;4.55;;;;;;;28.19;58.36;101870.59;4967154;28;20186;-74
2023/07/09 10:06:46;;;;;;;;;;;;;;;28.16;55.41;101862.78;4955571;28;20049;-74
2023/07/09 10:09:51;;;;;;;7.63;4.95;;;;;;;28.17;57.15;101867.19;4959543;28;19979;-74
2023/07/09 10:12:48;;;;;;;8.35;5.10;;;;;;;28.19;57.27;101865.16;4967751;28;20050;-73
2023/07/09 10:16:09;;;;;;;7.30;4.18;;;;;;;28.00;56.54;101858.94;4958226;28;20034;-74
2023/07/09 10:19:09;;;;;;;6.47;4.18;;;;;;;28.00;57.01;101850.75;4958556;28;20046;-73
2023/07/09 10:22:05;;;;;;;7.10;4.63;;;;;;;27.99;57.50;101851.78;4966988;28;20141;-74
2023/07/09 10:25:09;;;;;;;5.88;4.30;;;;;;;28.05;56.69;101839.41;4967587;28;20045;-74
2023/07/09 10:28:20;;;;;;;5.50;3.80;;;;;;;28.09;56.10;101842.66;4968004;28;20048;-74
2023/07/09 10:31:25;;;;;;;5.97;3.97;;;;;;;28.00;56.92;101836.31;4966618;28;20046;-74
2023/07/09 10:34:29;;;;;;;4.78;3.72;;;;;;;28.00;58.34;101842.59;4969431;28;20030;-74
2023/07/09 10:37:33;;;;;;;5.80;4.25;;;;;;;28.07;57.54;101845.53;4967897;28;20502;-74
2023/07/09 10:40:58;;;;;;;6.97;3.80;;;;;;;28.11;56.77;101844.19;4968980;28;20058;-74
2023/07/09 10:43:43;;;;;;;5.28;3.40;;;;;;;28.14;57.44;101841.16;4966469;28;20046;-74
2023/07/09 10:46:33;;;;;;;6.13;3.90;;;;;;;28.19;55.13;101846.97;4970968;28;20048;-73
2023/07/09 10:49:22;;;;;;;5.75;3.88;;;;;;;28.18;57.02;101844.41;4959615;28;20040;-74
2023/07/09 10:52:23;;;;;;;6.65;3.97;;;;;;;28.21;55.87;101841.38;4952946;28;20401;-74
2023/07/09 10:55:33;;;;;;;5.70;3.90;;;;;;;28.27;55.17;101846.16;4951052;28;20053;-74
2023/07/09 10:58:37;;;;;;;6.05;3.45;;;;;;;28.26;55.36;101839.03;4956879;28;20531;-74
2023/07/09 11:01:42;;;;;;;5.82;3.50;;;;;;;28.29;53.13;101846.88;4966082;28;20468;-74
2023/07/09 11:04:35;;;;;;;4.57;3.15;;;;;;;28.39;51.73;101840.44;4952110;28;20396;-74
2023/07/09 11:07:29;;;;;;;4.70;2.97;;;;;;;28.31;50.25;101844.84;4967478;28;20097;-74
2023/07/09 11:10:18;;;;;;;7.30;3.30;;;;;;;28.32;51.57;101846.53;4956566;28;20351;-74
2023/07/09 11:13:11;;;;;;;6.15;3.42;;;;;;;28.36;50.77;101855.22;4965750;28;20038;-74
2023/07/09 11:15:58;;;;;;;4.80;3.47;;;;;;;28.42;51.99;101845.53;4957585;28;20033;-74
2023/07/09 11:18:55;;;;;;;5.15;3.30;;;;;;;28.46;51.87;101838.75;4966537;28;20058;-74
2023/07/09 11:22:03;;;;;;;6.82;3.58;;;;;;;28.58;52.35;101844.75;4968112;28;20034;-74
2023/07/09 11:24:51;;;;;;;5.78;3.70;;;;;;;28.67;53.12;101830.16;4968441;28;20130;-74
2023/07/09 11:28:06;;;;;;;6.10;3.80;;;;;;;28.62;52.40;101828.94;4967390;28;20031;-74
2023/07/09 11:30:53;;;;;;;4.85;3.42;;;;;;;28.59;53.19;101830.09;4966000;28;20078;-74
2023/07/09 11:34:00;;;;;;;5.03;3.50;;;;;;;28.59;51.33;101825.53;4975448;28;20611;-75
2023/07/09 11:36:57;;;;;;;4.90;3.45;;;;;;;28.65;51.80;101815.84;4973748;28;20106;-74
2023/07/09 11:39:46;;;;;;;4.20;3.20;;;;;;;28.66;53.19;101819.41;4957615;28;20041;-74
2023/07/09 11:42:34;;;;;;;5.30;3.72;;;;;;;28.71;52.15;101833.41;4976020;28;20049;-74
2023/07/09 11:45:31;;;;;;;6.47;3.30;;;;;;;28.72;48.95;101818.75;4951051;28;20068;-74
2023/07/09 11:48:25;;;;;;;5.40;3.67;;;;;;;28.68;49.82;101826.41;4963592;28;20490;-75
2023/07/09 11:51:17;;;;;;;5.80;3.53;;;;;;;28.74;51.03;101824.88;4966725;28;20038;-75
2023/07/09 11:54:04;;;;;;;5.63;3.97;;;;;;;28.85;51.14;101824.59;4975438;28;20061;-74
2023/07/09 11:56:54;;;;;;;5.38;3.42;;;;;;;28.91;50.79;101830.41;4957210;28;20041;-74
2023/07/09 11:59:43;;;;;;;6.63;4.25;;;;;;;28.85;51.00;101837.34;4959208;28;20417;-75
2023/07/09 12:02:33;;;;;;;5.50;3.78;;;;;;;28.83;50.34;101833.94;4974612;28;20046;-74
2023/07/09 12:05:22;;;;;;;5.50;3.83;;;;;;;28.85;51.96;101830.06;4974836;28;20428;-74
2023/07/09 12:08:07;;;;;;;5.40;3.78;;;;;;;28.90;52.16;101823.22;4957163;28;20477;-74
2023/07/09 12:10:53;;;;;;;5.20;3.78;;;;;;;28.94;52.40;101813.72;4958050;28;20035;-75
2023/07/09 12:13:39;;;;;;;5.68;3.75;;;;;;;29.01;52.74;101806.56;4975980;28;20426;-74
2023/07/09 12:16:38;;;;;;;7.13;3.80;;;;;;;28.90;52.59;101794.13;4954007;28;20071;-74
2023/07/09 12:19:24;;;;;;;6.13;3.80;;;;;;;28.80;52.68;101782.53;4975429;28;20036;-74
2023/07/09 12:22:16;;;;;;;5.88;3.63;;;;;;;28.63;52.97;101787.09;4957815;28;20034;-74
2023/07/09 12:25:20;;;;;;;7.50;4.20;;;;;;;28.50;52.48;101793.88;4958715;28;20588;-74
2023/07/09 12:28:13;;;;;;;10.65;4.20;;;;;;;28.45;53.26;101807.13;4959532;28;20214;-74
2023/07/09 12:30:59;;;;;;;7.03;3.53;;;;;;;28.43;53.93;101804.53;4972305;28;20038;-74
2023/07/09 12:33:49;;;;;;;5.68;3.78;;;;;;;28.46;54.25;101814.25;4942659;28;20042;-74
2023/07/09 12:36:35;;;;;;;4.82;3.95;;;;;;;28.58;54.50;101807.50;4971058;28;20050;-73
2023/07/09 12:39:26;;;;;;;6.57;3.97;;;;;;;28.79;54.41;101808.88;4960726;28;20043;-74
2023/07/09 12:42:17;;;;;;;4.32;3.38;;;;;;;29.02;53.78;101810.97;4957348;28;20042;-74
2023/07/09 12:45:05;;;;;;;5.07;3.55;;;;;;;29.12;53.09;101825.31;4958431;28;20033;-74
2023/07/09 12:47:51;;;;;;;6.15;4.25;;;;;;;29.06;52.41;101820.53;4958918;28;20058;-74
2023/07/09 12:50:37;;;;;;;4.57;3.22;;;;;;;29.13;52.32;101812.50;4970839;28;20084;-74
2023/07/09 12:53:26;;;;;;;4.45;3.35;;;;;;;29.13;52.27;101809.78;4971507;28;20505;-74
2023/07/09 12:56:13;;;;;;;5.82;3.72;;;;;;;29.03;52.07;101806.41;4971944;28;20398;-74
2023/07/09 12:58:59;;;;;;;5.72;3.75;;;;;;;29.02;52.53;101805.53;4963120;28;20474;-74